Time;durP1;ratioP1;P1;durP2;ratioP2;P2;SDS_P1;SDS_P2;PMS_P1;PMS_P2;Temp;Humidity;BMP_temperature;BMP_pressure;BME280_temperature;BME280_humidity;BME280_pressure;Samples;Min_cycle;Max_cycle;Signal;HPM_P1;HPM_P2
2023/08/09 00:02:16;;;;;;;3.08;2.00;;;;;;;;;;5061198;28;20064;-70
2023/08/09 00:04:42;;;;;;;2.67;2.35;;;;;;;;;;5059820;28;20472;-71
2023/08/09 00:07:08;;;;;;;2.67;2.30;;;;;;;;;;5047732;28;20641;-70
2023/08/09 00:09:35;;;;;;;2.40;2.13;;;;;;;;;;5056768;28;20470;-70
2023/08/09 00:12:01;;;;;;;3.13;2.50;;;;;;;;;;5060455;28;20119;-71
2023/08/09 00:14:27;;;;;;;2.78;2.30;;;;;;;;;;5046177;28;20029;-70
2023/08/09 00:16:53;;;;;;;2.80;2.40;;;;;;;;;;5062025;28;20024;-70
2023/08/09 00:19:19;;;;;;;5.50;2.20;;;;;;;;;;5060129;28;20032;-70
2023/08/09 00:21:46;;;;;;;3.95;2.40;;;;;;;;;;5056160;28;20116;-70
2023/08/09 00:24:12;;;;;;;2.92;2.45;;;;;;;;;;5059077;28;20024;-70
2023/08/09 00:26:39;;;;;;;3.10;2.35;;;;;;;;;;5070408;28;20079;-70
2023/08/09 00:29:05;;;;;;;2.25;2.05;;;;;;;;;;5056569;28;20125;-70
2023/08/09 00:31:31;;;;;;;2.85;2.55;;;;;;;;;;5066736;28;20043;-71
2023/08/09 00:33:57;;;;;;;3.03;2.40;;;;;;;;;;5058497;28;20025;-70
2023/08/09 00:36:23;;;;;;;2.80;2.40;;;;;;;;;;5061733;28;20051;-70
2023/08/09 00:38:49;;;;;;;4.45;2.28;;;;;;;;;;5062795;28;20639;-71
2023/08/09 00:41:15;;;;;;;2.80;2.50;;;;;;;;;;5061106;28;20030;-70
2023/08/09 00:43:41;;;;;;;4.13;2.50;;;;;;;;;;5059517;28;20029;-70
2023/08/09 00:46:08;;;;;;;3.60;2.80;;;;;;;;;;5063951;28;20028;-70
2023/08/09 00:48:34;;;;;;;3.50;2.55;;;;;;;;;;5055553;28;20056;-69
2023/08/09 00:51:00;;;;;;;2.88;2.50;;;;;;;;;;5046366;28;20029;-70
2023/08/09 00:53:27;;;;;;;2.63;2.40;;;;;;;;;;5058028;28;20591;-71
2023/08/09 00:55:53;;;;;;;3.15;2.40;;;;;;;;;;5049391;28;20029;-70
2023/08/09 00:58:19;;;;;;;6.03;2.80;;;;;;;;;;5051479;28;20113;-70
2023/08/09 01:00:45;;;;;;;3.50;2.90;;;;;;;;;;5054501;28;20052;-71
2023/08/09 01:03:11;;;;;;;3.15;2.55;;;;;;;;;;5051793;28;20037;-70
2023/08/09 01:05:46;;;;;;;2.97;2.50;;;;;;;;;;5053554;28;20048;-70
2023/08/09 01:08:12;;;;;;;3.13;2.63;;;;;;;;;;5050871;28;20032;-70
2023/08/09 01:10:50;;;;;;;3.30;2.70;;;;;;;;;;5053946;28;20028;-70
2023/08/09 01:13:19;;;;;;;6.97;3.78;;;;;;;;;;5053604;28;20110;-70
2023/08/09 01:15:46;;;;;;;3.13;2.78;;;;;;;;;;5050175;28;20485;-70
2023/08/09 01:18:12;;;;;;;3.20;2.75;;;;;;;;;;5056550;28;20048;-70
2023/08/09 01:20:39;;;;;;;3.00;2.70;;;;;;;;;;5056266;28;20033;-70
2023/08/09 01:23:15;;;;;;;6.15;2.70;;;;;;;;;;5055268;28;20028;-71
2023/08/09 01:25:43;;;;;;;3.42;3.13;;;;;;;;;;5060886;28;20105;-70
2023/08/09 01:28:09;;;;;;;4.78;3.13;;;;;;;;;;5058888;28;20035;-70
2023/08/09 01:30:36;;;;;;;3.83;3.03;;;;;;;;;;5058872;28;20380;-70
2023/08/09 01:33:03;;;;;;;4.20;3.08;;;;;;;;;;5060734;28;20028;-70
2023/08/09 01:35:34;;;;;;;3.10;2.80;;;;;;;;;;5056041;28;20123;-70
2023/08/09 01:38:03;;;;;;;4.20;3.03;;;;;;;;;;5059042;28;20111;-70
2023/08/09 01:40:31;;;;;;;6.97;3.40;;;;;;;;;;5055614;28;20107;-70
2023/08/09 01:42:57;;;;;;;4.07;3.20;;;;;;;;;;5055143;28;20024;-70
2023/08/09 01:45:23;;;;;;;3.50;2.90;;;;;;;;;;5055037;28;20108;-70
2023/08/09 01:47:50;;;;;;;5.95;3.08;;;;;;;;;;5052035;28;20036;-70
2023/08/09 01:50:24;;;;;;;3.63;3.17;;;;;;;;;;5061735;28;20671;-70
2023/08/09 01:52:50;;;;;;;4.18;3.28;;;;;;;;;;5047563;28;20433;-70
2023/08/09 01:55:19;;;;;;;3.90;3.08;;;;;;;;;;5070266;28;20040;-70
2023/08/09 01:57:46;;;;;;;4.50;3.13;;;;;;;;;;5058958;28;20119;-70
2023/08/09 02:00:15;;;;;;;5.10;3.28;;;;;;;;;;5055738;28;20491;-69
2023/08/09 02:02:42;;;;;;;3.53;3.03;;;;;;;;;;5052212;28;20036;-70
2023/08/09 02:05:08;;;;;;;4.57;3.25;;;;;;;;;;5052133;28;20041;-70
2023/08/09 02:07:34;;;;;;;5.00;3.10;;;;;;;;;;5056576;28;20055;-69
2023/08/09 02:10:00;;;;;;;7.38;3.97;;;;;;;;;;5060357;28;20025;-69
2023/08/09 02:12:26;;;;;;;4.30;2.95;;;;;;;;;;5049679;28;20043;-70
2023/08/09 02:14:52;;;;;;;5.47;2.90;;;;;;;;;;5048950;28;20118;-70
2023/08/09 02:17:18;;;;;;;3.25;2.75;;;;;;;;;;5060948;28;20064;-69
2023/08/09 02:19:44;;;;;;;3.92;2.90;;;;;;;;;;5051427;28;20033;-70
2023/08/09 02:22:11;;;;;;;4.18;3.08;;;;;;;;;;5051841;28;20036;-69
2023/08/09 02:24:37;;;;;;;3.92;3.00;;;;;;;;;;5051827;28;20021;-70
2023/08/09 02:27:03;;;;;;;4.38;3.10;;;;;;;;;;5053643;28;20047;-69
2023/08/09 02:29:30;;;;;;;4.78;3.22;;;;;;;;;;5048771;28;20044;-70
2023/08/09 02:31:57;;;;;;;4.05;3.40;;;;;;;;;;5052026;28;20035;-70
2023/08/09 02:34:23;;;;;;;3.20;2.90;;;;;;;;;;5058854;28;20400;-70
2023/08/09 02:36:49;;;;;;;5.82;3.60;;;;;;;;;;5056156;28;20089;-70
2023/08/09 02:39:15;;;;;;;4.05;3.35;;;;;;;;;;5048531;28;20414;-69
2023/08/09 02:41:42;;;;;;;4.32;3.03;;;;;;;;;;5052670;28;20239;-70
2023/08/09 02:44:08;;;;;;;4.07;3.05;;;;;;;;;;5051617;28;20029;-69
2023/08/09 02:46:34;;;;;;;5.20;3.08;;;;;;;;;;5053946;28;20057;-70
2023/08/09 02:49:00;;;;;;;4.40;3.10;;;;;;;;;;5052143;28;20029;-70
2023/08/09 02:51:26;;;;;;;5.32;3.13;;;;;;;;;;5048693;28;20017;-71
2023/08/09 02:54:06;;;;;;;3.92;3.40;;;;;;;;;;5053991;28;20025;-71
2023/08/09 02:56:32;;;;;;;6.10;3.38;;;;;;;;;;5056816;28;20420;-71
2023/08/09 02:58:59;;;;;;;4.53;3.10;;;;;;;;;;5047623;28;20025;-70
2023/08/09 03:01:29;;;;;;;4.10;2.90;;;;;;;;;;5057575;28;20427;-71
2023/08/09 03:03:57;;;;;;;3.53;3.10;;;;;;;;;;5065929;28;20480;-70
2023/08/09 03:06:25;;;;;;;3.53;3.03;;;;;;;;;;5062247;28;20297;-70
2023/08/09 03:08:53;;;;;;;4.10;3.42;;;;;;;;;;5058143;28;20376;-71
2023/08/09 03:11:22;;;;;;;4.90;3.40;;;;;;;;;;5060899;28;20068;-70
2023/08/09 03:13:49;;;;;;;4.88;3.50;;;;;;;;;;5057867;28;20536;-70
2023/08/09 03:16:15;;;;;;;3.67;3.25;;;;;;;;;;5061503;28;20045;-70
2023/08/09 03:18:41;;;;;;;6.65;3.53;;;;;;;;;;5053744;28;20590;-70
2023/08/09 03:21:07;;;;;;;3.90;3.42;;;;;;;;;;5057712;28;20037;-70
2023/08/09 03:23:34;;;;;;;3.97;3.00;;;;;;;;;;5062854;28;20035;-70
2023/08/09 03:26:00;;;;;;;6.60;3.55;;;;;;;;;;5051386;28;20507;-70
2023/08/09 03:28:27;;;;;;;4.22;2.83;;;;;;;;;;5053854;28;20393;-70
2023/08/09 03:30:53;;;;;;;4.93;2.97;;;;;;;;;;5061855;28;20032;-71
2023/08/09 03:33:19;;;;;;;3.92;3.20;;;;;;;;;;5057554;28;21336;-70
2023/08/09 03:35:45;;;;;;;5.68;3.10;;;;;;;;;;5033851;28;20253;-70
2023/08/09 03:38:13;;;;;;;5.80;3.58;;;;;;;;;;5052705;28;20032;-70
2023/08/09 03:40:39;;;;;;;6.43;3.28;;;;;;;;;;5064110;28;20024;-70
2023/08/09 03:43:06;;;;;;;6.90;3.38;;;;;;;;;;5055782;28;20029;-70
2023/08/09 03:45:32;;;;;;;4.00;3.55;;;;;;;;;;5053765;28;21009;-70
2023/08/09 03:47:58;;;;;;;6.40;3.50;;;;;;;;;;5057177;28;20551;-70
2023/08/09 03:50:25;;;;;;;6.15;3.42;;;;;;;;;;5035521;28;20695;-70
2023/08/09 03:52:51;;;;;;;4.22;3.58;;;;;;;;;;5050043;28;20032;-70
2023/08/09 03:55:18;;;;;;;6.13;3.10;;;;;;;;;;5055669;28;20029;-70
2023/08/09 03:57:44;;;;;;;3.95;3.03;;;;;;;;;;5046024;28;20531;-70
2023/08/09 04:00:17;;;;;;;5.78;3.30;;;;;;;;;;5052586;28;20563;-70
2023/08/09 04:02:47;;;;;;;6.07;3.55;;;;;;;;;;5051367;28;20395;-70
2023/08/09 04:05:16;;;;;;;3.90;3.25;;;;;;;;;;5052221;28;20025;-70
2023/08/09 04:07:45;;;;;;;7.03;3.78;;;;;;;;;;5047731;28;20426;-70
2023/08/09 04:10:12;;;;;;;5.28;3.90;;;;;;;;;;5054181;28;20028;-70
2023/08/09 04:12:38;;;;;;;4.07;3.33;;;;;;;;;;5060911;28;20036;-70
2023/08/09 04:15:06;;;;;;;5.05;3.78;;;;;;;;;;5053520;28;20078;-70
2023/08/09 04:17:32;;;;;;;6.13;3.97;;;;;;;;;;5051847;28;20114;-70
2023/08/09 04:19:59;;;;;;;4.85;3.53;;;;;;;;;;5046726;28;20039;-70
2023/08/09 04:22:25;;;;;;;6.63;4.03;;;;;;;;;;5051050;28;20418;-70
2023/08/09 04:24:51;;;;;;;5.43;3.85;;;;;;;;;;5063661;28;20032;-70
2023/08/09 04:27:17;;;;;;;7.13;4.78;;;;;;;;;;5053827;28;20400;-70
2023/08/09 04:29:43;;;;;;;6.53;4.40;;;;;;;;;;5051085;28;20052;-70
2023/08/09 04:32:10;;;;;;;7.28;4.63;;;;;;;;;;5045460;28;20082;-70
2023/08/09 04:34:36;;;;;;;6.38;4.65;;;;;;;;;;5050020;28;20036;-70
2023/08/09 04:37:02;;;;;;;6.90;5.13;;;;;;;;;;5048400;28;20429;-70
2023/08/09 04:39:28;;;;;;;5.78;4.13;;;;;;;;;;5049508;28;20032;-70
2023/08/09 04:41:54;;;;;;;8.82;4.70;;;;;;;;;;5047889;28;20028;-70
2023/08/09 04:44:20;;;;;;;7.80;4.80;;;;;;;;;;5055299;28;20032;-71
2023/08/09 04:46:46;;;;;;;6.38;4.70;;;;;;;;;;5049781;28;20078;-70
2023/08/09 04:49:13;;;;;;;6.50;5.03;;;;;;;;;;5048440;28;20471;-70
2023/08/09 04:51:40;;;;;;;8.02;5.05;;;;;;;;;;5049121;28;20020;-70
2023/08/09 04:54:06;;;;;;;5.57;4.60;;;;;;;;;;5048505;28;20024;-70
2023/08/09 04:56:32;;;;;;;6.53;5.10;;;;;;;;;;5045601;28;20033;-70
2023/08/09 04:58:58;;;;;;;6.93;5.13;;;;;;;;;;5049406;28;20455;-70
2023/08/09 05:01:25;;;;;;;7.65;4.75;;;;;;;;;;5054344;28;20059;-70
2023/08/09 05:03:51;;;;;;;8.30;4.50;;;;;;;;;;5054110;28;20475;-70
2023/08/09 05:06:17;;;;;;;6.43;5.10;;;;;;;;;;5042466;28;20028;-70
2023/08/09 05:08:44;;;;;;;7.82;5.53;;;;;;;;;;5039998;28;20089;-70
2023/08/09 05:11:10;;;;;;;7.88;5.32;;;;;;;;;;5042540;28;20035;-70
2023/08/09 05:13:37;;;;;;;7.50;4.82;;;;;;;;;;5041620;28;20527;-70
2023/08/09 05:16:03;;;;;;;6.80;4.97;;;;;;;;;;5050241;28;20458;-70
2023/08/09 05:18:29;;;;;;;6.43;4.88;;;;;;;;;;5039775;28;20033;-70
2023/08/09 05:20:56;;;;;;;7.82;4.72;;;;;;;;;;5043255;28;20082;-70
2023/08/09 05:23:28;;;;;;;8.25;5.45;;;;;;;;;;5050188;28;20563;-71
2023/08/09 05:25:54;;;;;;;5.90;4.47;;;;;;;;;;5057475;28;20320;-69
2023/08/09 05:28:20;;;;;;;6.20;4.15;;;;;;;;;;5066858;28;20846;-69
2023/08/09 05:30:46;;;;;;;7.65;4.80;;;;;;;;;;5057633;28;20363;-69
2023/08/09 05:33:12;;;;;;;6.47;4.35;;;;;;;;;;5045918;28;20059;-69
2023/08/09 05:35:39;;;;;;;8.93;5.15;;;;;;;;;;5052213;28;20053;-69
2023/08/09 05:38:05;;;;;;;5.95;4.53;;;;;;;;;;5053294;28;20369;-69
2023/08/09 05:40:31;;;;;;;5.72;4.55;;;;;;;;;;5047653;28;20040;-69
2023/08/09 05:42:57;;;;;;;5.57;4.30;;;;;;;;;;5051200;28;20451;-68
2023/08/09 05:45:23;;;;;;;6.68;4.15;;;;;;;;;;5053122;28;20456;-69
2023/08/09 05:47:49;;;;;;;7.82;4.80;;;;;;;;;;5056796;28;20032;-69
2023/08/09 05:50:15;;;;;;;6.38;4.47;;;;;;;;;;5050368;28;21025;-69
2023/08/09 05:52:42;;;;;;;6.32;4.60;;;;;;;;;;5051506;28;20024;-69
2023/08/09 05:55:08;;;;;;;6.93;4.50;;;;;;;;;;5053504;28;20157;-69
2023/08/09 05:57:36;;;;;;;5.75;4.72;;;;;;;;;;5059562;28;20120;-69
2023/08/09 06:00:02;;;;;;;6.80;4.68;;;;;;;;;;5063406;28;20092;-68
2023/08/09 06:02:28;;;;;;;7.63;4.30;;;;;;;;;;5049974;28;20033;-69
2023/08/09 06:04:54;;;;;;;5.90;5.07;;;;;;;;;;5055779;28;20044;-69
2023/08/09 06:07:20;;;;;;;7.13;4.65;;;;;;;;;;5054217;28;20052;-69
2023/08/09 06:09:46;;;;;;;6.18;4.40;;;;;;;;;;5047495;28;20029;-68
2023/08/09 06:12:12;;;;;;;6.78;4.68;;;;;;;;;;5059895;28;20029;-69
2023/08/09 06:14:38;;;;;;;5.25;4.60;;;;;;;;;;5054218;28;20539;-69
2023/08/09 06:17:04;;;;;;;6.63;5.00;;;;;;;;;;5048296;28;20071;-69
2023/08/09 06:19:30;;;;;;;5.53;4.88;;;;;;;;;;5047847;28;20021;-69
2023/08/09 06:21:56;;;;;;;6.13;4.53;;;;;;;;;;5052630;28;20028;-70
2023/08/09 06:24:22;;;;;;;5.07;4.45;;;;;;;;;;5050400;28;20033;-69
2023/08/09 06:26:49;;;;;;;5.07;4.55;;;;;;;;;;5054496;28;20041;-69
2023/08/09 06:29:15;;;;;;;8.07;4.88;;;;;;;;;;5057813;28;20059;-69
2023/08/09 06:31:42;;;;;;;6.18;4.93;;;;;;;;;;5054992;28;20025;-69
2023/08/09 06:34:08;;;;;;;5.90;4.88;;;;;;;;;;5053306;28;20023;-69
2023/08/09 06:36:34;;;;;;;8.15;5.40;;;;;;;;;;5056763;28;20095;-67
2023/08/09 06:39:03;;;;;;;6.78;5.25;;;;;;;;;;5056109;28;20028;-68
2023/08/09 06:41:31;;;;;;;7.40;5.22;;;;;;;;;;5058652;28;20056;-69
2023/08/09 06:43:57;;;;;;;6.05;5.13;;;;;;;;;;5066698;28;20036;-69
2023/08/09 06:46:23;;;;;;;8.55;6.47;;;;;;;;;;5056599;28;20029;-68
2023/08/09 06:48:49;;;;;;;6.95;5.32;;;;;;;;;;5051125;28;20480;-68
2023/08/09 06:51:18;;;;;;;5.95;5.32;;;;;;;;;;5057898;28;20024;-69
2023/08/09 06:53:44;;;;;;;6.60;5.07;;;;;;;;;;5054703;28;20027;-69
2023/08/09 06:56:10;;;;;;;7.55;5.60;;;;;;;;;;5060301;28;20585;-70
2023/08/09 06:58:36;;;;;;;6.38;5.57;;;;;;;;;;5057435;28;20025;-69
2023/08/09 07:01:03;;;;;;;7.22;5.32;;;;;;;;;;5056446;28;20439;-69
2023/08/09 07:03:29;;;;;;;7.03;5.25;;;;;;;;;;5058104;28;20301;-68
2023/08/09 07:05:55;;;;;;;6.57;5.53;;;;;;;;;;5057899;28;20028;-69
2023/08/09 07:08:22;;;;;;;7.65;5.80;;;;;;;;;;5056377;28;20033;-69
2023/08/09 07:10:48;;;;;;;7.40;5.35;;;;;;;;;;5064469;28;20035;-69
2023/08/09 07:13:14;;;;;;;7.15;5.57;;;;;;;;;;5057449;28;20461;-69
2023/08/09 07:15:40;;;;;;;7.65;5.85;;;;;;;;;;5060998;28;20047;-69
2023/08/09 07:18:07;;;;;;;7.07;5.45;;;;;;;;;;5058960;28;20034;-68
2023/08/09 07:20:33;;;;;;;6.35;5.60;;;;;;;;;;5056118;28;20056;-69
2023/08/09 07:22:59;;;;;;;7.53;5.15;;;;;;;;;;5058421;28;20112;-69
2023/08/09 07:25:26;;;;;;;7.05;4.97;;;;;;;;;;5057009;28;20468;-69
2023/08/09 07:27:52;;;;;;;6.57;5.18;;;;;;;;;;5051008;28;20027;-69
2023/08/09 07:30:19;;;;;;;7.68;4.80;;;;;;;;;;5052074;28;20037;-68
2023/08/09 07:32:45;;;;;;;7.20;5.18;;;;;;;;;;5062173;28;20056;-69
2023/08/09 07:35:12;;;;;;;5.32;4.28;;;;;;;;;;5054527;28;20032;-69
2023/08/09 07:37:41;;;;;;;5.95;4.40;;;;;;;;;;5057464;28;20025;-69
2023/08/09 07:40:08;;;;;;;7.32;4.47;;;;;;;;;;5054103;28;20539;-69
2023/08/09 07:42:37;;;;;;;4.97;4.28;;;;;;;;;;5054986;28;20108;-69
2023/08/09 07:45:03;;;;;;;6.18;4.20;;;;;;;;;;5056524;28;20028;-69
2023/08/09 07:47:29;;;;;;;5.60;4.10;;;;;;;;;;5061657;28;20051;-69
2023/08/09 07:49:56;;;;;;;7.72;4.38;;;;;;;;;;5049745;28;20083;-69
2023/08/09 07:52:22;;;;;;;5.20;3.83;;;;;;;;;;5056713;28;20025;-69
2023/08/09 07:54:48;;;;;;;5.93;4.10;;;;;;;;;;5048532;28;20028;-69
2023/08/09 07:57:14;;;;;;;5.82;4.05;;;;;;;;;;5063455;28;20484;-69
2023/08/09 07:59:40;;;;;;;5.18;3.85;;;;;;;;;;5047534;28;20028;-69
2023/08/09 08:02:06;;;;;;;5.78;3.85;;;;;;;;;;5045891;28;20374;-69
2023/08/09 08:04:34;;;;;;;5.43;3.92;;;;;;;;;;5049872;28;20025;-69
2023/08/09 08:07:00;;;;;;;4.90;3.65;;;;;;;;;;5049885;28;20025;-69
2023/08/09 08:09:26;;;;;;;6.82;4.45;;;;;;;;;;5049538;28;20024;-69
2023/08/09 08:11:53;;;;;;;5.65;3.90;;;;;;;;;;5052564;28;20056;-69
2023/08/09 08:14:19;;;;;;;4.30;3.53;;;;;;;;;;5045797;28;20167;-69
2023/08/09 08:16:45;;;;;;;5.03;3.70;;;;;;;;;;5050319;28;20033;-69
2023/08/09 08:19:11;;;;;;;5.50;3.45;;;;;;;;;;5053688;28;20178;-69
2023/08/09 08:21:37;;;;;;;4.45;3.53;;;;;;;;;;5064676;28;20032;-69
2023/08/09 08:24:04;;;;;;;4.03;3.47;;;;;;;;;;5055728;28;20496;-69
2023/08/09 08:26:33;;;;;;;4.72;3.70;;;;;;;;;;5046220;28;20063;-69
2023/08/09 08:28:59;;;;;;;4.20;3.03;;;;;;;;;;5055103;28;20575;-69
2023/08/09 08:31:26;;;;;;;4.72;3.28;;;;;;;;;;5050356;28;20032;-69
2023/08/09 08:33:54;;;;;;;5.35;3.58;;;;;;;;;;5058294;28;20292;-69
2023/08/09 08:36:22;;;;;;;5.32;2.63;;;;;;;;;;5059777;28;20040;-69
2023/08/09 08:38:48;;;;;;;6.60;3.30;;;;;;;;;;5052709;28;20087;-69
2023/08/09 08:41:15;;;;;;;6.03;3.38;;;;;;;;;;5049926;28;20416;-69
2023/08/09 08:43:41;;;;;;;6.07;3.10;;;;;;;;;;5057693;28;20029;-69
2023/08/09 08:46:09;;;;;;;4.20;2.80;;;;;;;;;;5054408;28;20373;-69
2023/08/09 08:48:36;;;;;;;3.67;3.30;;;;;;;;;;5051791;28;20050;-69
2023/08/09 08:51:04;;;;;;;4.45;2.90;;;;;;;;;;5049994;28;20025;-70
2023/08/09 08:53:30;;;;;;;3.83;2.85;;;;;;;;;;5044857;28;20083;-69
2023/08/09 08:55:57;;;;;;;4.10;2.80;;;;;;;;;;5048803;28;20028;-69
2023/08/09 08:58:23;;;;;;;4.78;2.90;;;;;;;;;;5061756;28;20086;-69
2023/08/09 09:00:49;;;;;;;4.22;2.80;;;;;;;;;;5050694;28;21922;-69
2023/08/09 09:03:16;;;;;;;3.55;3.03;;;;;;;;;;5047035;28;20867;-69
2023/08/09 09:05:42;;;;;;;3.75;3.00;;;;;;;;;;5053548;28;20439;-70
2023/08/09 09:08:08;;;;;;;3.90;2.63;;;;;;;;;;5056456;28;20738;-69
2023/08/09 09:10:34;;;;;;;3.22;2.78;;;;;;;;;;5058438;28;20041;-70
2023/08/09 09:13:00;;;;;;;5.18;3.17;;;;;;;;;;5053420;28;20028;-70
2023/08/09 09:15:27;;;;;;;3.22;2.60;;;;;;;;;;5048488;28;20025;-69
2023/08/09 09:17:53;;;;;;;3.50;2.75;;;;;;;;;;5055680;28;20025;-69
2023/08/09 09:20:24;;;;;;;4.38;3.00;;;;;;;;;;5059841;28;20060;-69
2023/08/09 09:22:51;;;;;;;3.63;2.60;;;;;;;;;;5050002;28;20106;-69
2023/08/09 09:25:18;;;;;;;5.72;2.50;;;;;;;;;;5051261;28;20182;-69
2023/08/09 09:27:46;;;;;;;3.03;2.35;;;;;;;;;;5056620;28;20396;-70
2023/08/09 09:30:13;;;;;;;2.72;2.22;;;;;;;;;;5050341;28;20370;-70
2023/08/09 09:32:51;;;;;;;7.75;3.33;;;;;;;;;;5049750;28;20354;-70
2023/08/09 09:35:21;;;;;;;3.00;2.20;;;;;;;;;;5055395;28;20564;-71
2023/08/09 09:37:48;;;;;;;3.30;2.60;;;;;;;;;;5051436;28;20108;-71
2023/08/09 09:40:24;;;;;;;3.90;2.17;;;;;;;;;;5069587;28;20051;-72
2023/08/09 09:42:53;;;;;;;2.92;2.25;;;;;;;;;;5046716;28;20025;-72
2023/08/09 09:45:29;;;;;;;3.88;2.35;;;;;;;;;;5050826;28;20032;-71
2023/08/09 09:47:57;;;;;;;2.45;2.13;;;;;;;;;;5054478;28;20036;-71
2023/08/09 09:50:23;;;;;;;3.40;2.25;;;;;;;;;;5057158;28;20028;-72
2023/08/09 09:52:50;;;;;;;2.40;2.20;;;;;;;;;;5052230;28;20036;-72
2023/08/09 09:55:19;;;;;;;3.20;2.20;;;;;;;;;;5050887;28;20308;-72
2023/08/09 09:57:46;;;;;;;3.03;2.28;;;;;;;;;;5054372;28;20028;-72
2023/08/09 10:00:14;;;;;;;2.42;1.85;;;;;;;;;;5047965;28;20364;-71
2023/08/09 10:02:47;;;;;;;3.42;2.63;;;;;;;;;;5054219;28;20021;-71
2023/08/09 10:05:19;;;;;;;4.10;2.03;;;;;;;;;;5060599;28;20043;-72
2023/08/09 10:07:46;;;;;;;3.05;2.05;;;;;;;;;;5058356;28;20570;-72
2023/08/09 10:10:12;;;;;;;2.13;1.90;;;;;;;;;;5054354;28;20029;-71
2023/08/09 10:12:41;;;;;;;2.22;2.00;;;;;;;;;;5057297;28;20033;-72
2023/08/09 10:15:09;;;;;;;3.75;2.20;;;;;;;;;;5053255;28;20473;-72
2023/08/09 10:17:37;;;;;;;3.78;2.15;;;;;;;;;;5067361;28;20179;-72
2023/08/09 10:20:05;;;;;;;2.92;2.25;;;;;;;;;;5050541;28;20029;-71
2023/08/09 10:22:32;;;;;;;2.72;1.95;;;;;;;;;;5056956;28;20549;-72
2023/08/09 10:24:58;;;;;;;2.85;2.03;;;;;;;;;;5071468;28;20395;-71
2023/08/09 10:27:45;;;;;;;3.17;2.35;;;;;;;;;;5051463;28;20029;-72
2023/08/09 10:30:13;;;;;;;3.55;2.30;;;;;;;;;;5060138;28;20035;-71
2023/08/09 10:32:56;;;;;;;2.35;2.10;;;;;;;;;;5062857;28;20028;-71
2023/08/09 10:35:41;;;;;;;2.20;2.00;;;;;;;;;;5057046;28;20048;-71
2023/08/09 10:38:07;;;;;;;;;;;;;;;;;;5058460;28;20388;-72
2023/08/09 10:40:36;;;;;;;3.17;2.28;;;;;;;;;;5058361;28;19905;-71
2023/08/09 10:43:03;;;;;;;4.70;2.20;;;;;;;;;;5057571;28;20496;-72
2023/08/09 10:45:31;;;;;;;2.00;1.88;;;;;;;;;;5058996;28;20110;-72
2023/08/09 10:48:17;;;;;;;4.38;2.30;;;;;;;;;;5057041;28;20031;-71
2023/08/09 10:50:44;;;;;;;2.88;2.30;;;;;;;;;;5056919;28;20021;-72
2023/08/09 10:53:10;;;;;;;3.47;2.10;;;;;;;;;;5067601;28;20024;-71
2023/08/09 10:55:36;;;;;;;2.30;2.10;;;;;;;;;;5058393;28;20492;-70
2023/08/09 10:58:03;;;;;;;2.65;2.10;;;;;;;;;;5063140;28;20021;-72
2023/08/09 11:00:37;;;;;;;2.72;2.33;;;;;;;;;;5055671;28;20041;-71
2023/08/09 11:03:04;;;;;;;;;;;;;;;;;;5062760;28;20350;-71
2023/08/09 11:05:30;;;;;;;4.00;2.33;;;;;;;;;;5054199;28;20391;-71
2023/08/09 11:07:59;;;;;;;4.80;2.20;;;;;;;;;;5052478;28;20093;-71
2023/08/09 11:10:30;;;;;;;2.75;2.10;;;;;;;;;;5068097;28;20045;-72
2023/08/09 11:12:56;;;;;;;3.58;2.05;;;;;;;;;;5053291;28;20089;-67
2023/08/09 11:15:22;;;;;;;2.22;2.00;;;;;;;;;;5053094;28;20544;-67
2023/08/09 11:17:49;;;;;;;3.17;2.05;;;;;;;;;;5066477;28;20032;-68
2023/08/09 11:20:15;;;;;;;2.40;2.20;;;;;;;;;;5052352;28;20532;-69
2023/08/09 11:23:01;;;;;;;3.35;2.92;;;;;;;;;;5051109;28;20035;-69
2023/08/09 11:25:29;;;;;;;2.47;2.00;;;;;;;;;;5050270;28;20049;-69
2023/08/09 11:27:56;;;;;;;2.20;2.00;;;;;;;;;;5051942;28;20396;-69
2023/08/09 11:30:22;;;;;;;2.22;1.83;;;;;;;;;;5052513;28;20543;-70
2023/08/09 11:32:56;;;;;;;2.40;1.75;;;;;;;;;;5054197;28;20047;-69
2023/08/09 11:35:26;;;;;;;4.75;2.20;;;;;;;;;;5047555;28;20060;-69
2023/08/09 11:37:53;;;;;;;3.88;2.17;;;;;;;;;;5057799;28;20035;-69
2023/08/09 11:40:20;;;;;;;3.00;2.22;;;;;;;;;;5051743;28;20025;-69
2023/08/09 11:42:46;;;;;;;2.15;1.95;;;;;;;;;;5050007;28;20048;-69
2023/08/09 11:45:12;;;;;;;2.45;1.95;;;;;;;;;;5050727;28;20132;-70
2023/08/09 11:47:38;;;;;;;2.67;2.00;;;;;;;;;;5050578;28;20086;-69
2023/08/09 11:50:21;;;;;;;2.30;2.10;;;;;;;;;;5046575;28;20116;-69
2023/08/09 11:52:51;;;;;;;2.38;2.00;;;;;;;;;;5049683;28;20063;-69
2023/08/09 11:55:17;;;;;;;2.75;2.00;;;;;;;;;;5049989;28;20047;-69
2023/08/09 11:57:43;;;;;;;2.90;2.10;;;;;;;;;;5053537;28;20042;-69
2023/08/09 12:00:10;;;;;;;2.95;2.10;;;;;;;;;;5054784;28;20537;-69
2023/08/09 12:02:37;;;;;;;3.85;2.25;;;;;;;;;;5050257;28;20032;-69
2023/08/09 12:05:10;;;;;;;2.40;2.20;;;;;;;;;;5050443;28;20544;-69
2023/08/09 12:07:36;;;;;;;3.95;1.90;;;;;;;;;;5071488;28;20477;-69
2023/08/09 12:10:03;;;;;;;4.50;2.17;;;;;;;;;;5054526;28;20028;-71
2023/08/09 12:12:36;;;;;;;2.50;2.10;;;;;;;;;;5051891;28;20404;-71
2023/08/09 12:15:03;;;;;;;2.63;2.25;;;;;;;;;;5056361;28;20021;-71
2023/08/09 12:17:30;;;;;;;2.92;2.03;;;;;;;;;;5069932;28;20032;-71
2023/08/09 12:19:57;;;;;;;4.40;2.53;;;;;;;;;;5052066;28;20029;-72
2023/08/09 12:22:25;;;;;;;3.92;2.42;;;;;;;;;;5051965;28;20040;-71
2023/08/09 12:24:52;;;;;;;2.10;1.90;;;;;;;;;;5054795;28;20028;-71
2023/08/09 12:27:19;;;;;;;2.30;2.10;;;;;;;;;;5050045;28;20033;-71
2023/08/09 12:29:46;;;;;;;2.05;1.85;;;;;;;;;;5054167;28;20695;-71
2023/08/09 12:32:12;;;;;;;2.42;2.13;;;;;;;;;;5055039;28;20111;-71
2023/08/09 12:34:38;;;;;;;2.60;2.30;;;;;;;;;;5053605;28;20039;-71
2023/08/09 12:37:05;;;;;;;2.90;2.10;;;;;;;;;;5055429;28;20035;-71
2023/08/09 12:39:31;;;;;;;3.22;2.15;;;;;;;;;;5057590;28;20027;-71
2023/08/09 12:41:59;;;;;;;3.85;2.15;;;;;;;;;;5053641;28;20024;-71
2023/08/09 12:44:25;;;;;;;3.60;2.35;;;;;;;;;;5052093;28;20032;-71
2023/08/09 12:46:52;;;;;;;2.60;2.20;;;;;;;;;;5051746;28;20453;-71
2023/08/09 12:49:21;;;;;;;2.33;2.00;;;;;;;;;;5053013;28;20431;-71
2023/08/09 12:51:47;;;;;;;2.83;2.00;;;;;;;;;;5048344;28;20517;-71
2023/08/09 12:54:13;;;;;;;3.15;2.50;;;;;;;;;;5072985;28;20243;-71
2023/08/09 12:56:40;;;;;;;2.40;1.98;;;;;;;;;;5056418;28;20029;-71
2023/08/09 12:59:07;;;;;;;3.85;2.10;;;;;;;;;;5050781;28;20033;-71
2023/08/09 13:01:33;;;;;;;2.20;1.80;;;;;;;;;;5053986;28;20032;-71
2023/08/09 13:04:03;;;;;;;2.67;1.90;;;;;;;;;;5050243;28;20041;-71
2023/08/09 13:06:29;;;;;;;2.08;1.90;;;;;;;;;;5053456;28;20024;-71
2023/08/09 13:08:57;;;;;;;4.28;2.00;;;;;;;;;;5054154;28;20039;-71
2023/08/09 13:11:23;;;;;;;2.83;1.90;;;;;;;;;;5050200;28;20481;-71
2023/08/09 13:13:50;;;;;;;2.65;2.17;;;;;;;;;;5058786;28;20029;-71
2023/08/09 13:16:16;;;;;;;4.63;2.75;;;;;;;;;;5064712;28;20028;-71
2023/08/09 13:18:42;;;;;;;2.63;2.00;;;;;;;;;;5051666;28;20028;-71
2023/08/09 13:21:13;;;;;;;1.90;1.70;;;;;;;;;;5055001;28;20056;-70
2023/08/09 13:23:39;;;;;;;2.67;1.80;;;;;;;;;;5044033;28;20524;-71
2023/08/09 13:26:05;;;;;;;2.78;1.88;;;;;;;;;;5056281;28;20029;-71
2023/08/09 13:28:31;;;;;;;3.65;2.17;;;;;;;;;;5055895;28;21724;-72
2023/08/09 13:30:57;;;;;;;2.50;1.90;;;;;;;;;;5048204;28;20036;-71
2023/08/09 13:33:23;;;;;;;1.98;1.80;;;;;;;;;;5058325;28;20067;-71
2023/08/09 13:35:50;;;;;;;2.72;2.00;;;;;;;;;;5053460;28;20052;-72
2023/08/09 13:38:29;;;;;;;2.33;1.85;;;;;;;;;;5053249;28;20495;-72
2023/08/09 13:40:56;;;;;;;3.53;2.20;;;;;;;;;;5046930;28;20025;-71
2023/08/09 13:43:23;;;;;;;2.83;1.80;;;;;;;;;;5071402;28;20043;-71
2023/08/09 13:45:49;;;;;;;2.33;1.90;;;;;;;;;;5050887;28;20039;-72
2023/08/09 13:48:16;;;;;;;2.45;1.80;;;;;;;;;;5055843;28;20040;-72
2023/08/09 13:50:42;;;;;;;2.20;2.00;;;;;;;;;;5053620;28;20028;-72
2023/08/09 13:53:08;;;;;;;5.07;2.17;;;;;;;;;;5050162;28;20039;-71
2023/08/09 13:55:34;;;;;;;3.28;2.17;;;;;;;;;;5049935;28;20036;-71
2023/08/09 13:58:00;;;;;;;2.67;1.90;;;;;;;;;;5055554;28;20025;-72
2023/08/09 14:00:27;;;;;;;4.03;2.00;;;;;;;;;;5048796;28;20027;-71
2023/08/09 14:02:53;;;;;;;3.42;2.20;;;;;;;;;;5045548;28;20108;-72
2023/08/09 14:05:19;;;;;;;2.55;1.90;;;;;;;;;;5050198;28;20028;-72
2023/08/09 14:07:45;;;;;;;2.30;2.10;;;;;;;;;;5053926;28;20025;-71
2023/08/09 14:10:11;;;;;;;3.20;2.13;;;;;;;;;;5070545;28;20077;-71
2023/08/09 14:12:37;;;;;;;2.10;1.90;;;;;;;;;;5047328;28;20025;-71
2023/08/09 14:15:04;;;;;;;2.67;2.03;;;;;;;;;;5055646;28;20021;-71
2023/08/09 14:17:30;;;;;;;3.42;2.05;;;;;;;;;;5055120;28;20029;-71
2023/08/09 14:19:56;;;;;;;2.30;1.85;;;;;;;;;;5066725;28;20086;-70
2023/08/09 14:22:23;;;;;;;2.20;1.90;;;;;;;;;;5052663;28;20029;-71
2023/08/09 14:24:49;;;;;;;2.72;1.88;;;;;;;;;;5053741;28;20089;-71
2023/08/09 14:27:15;;;;;;;2.47;2.00;;;;;;;;;;5052308;28;20150;-71
2023/08/09 14:29:45;;;;;;;2.30;2.10;;;;;;;;;;5051325;28;20566;-71
2023/08/09 14:32:11;;;;;;;2.72;1.95;;;;;;;;;;5055113;28;20035;-71
2023/08/09 14:34:37;;;;;;;2.38;2.00;;;;;;;;;;5051363;28;20405;-71
2023/08/09 14:37:04;;;;;;;2.05;1.80;;;;;;;;;;5049290;28;20713;-71
2023/08/09 14:39:30;;;;;;;1.88;1.75;;;;;;;;;;5050870;28;20112;-71
2023/08/09 14:41:56;;;;;;;2.25;2.05;;;;;;;;;;5046520;28;20538;-71
2023/08/09 14:44:22;;;;;;;3.70;2.25;;;;;;;;;;5047018;28;20498;-72